createdAt,value
2022-10-11T00:01:40.251Z,91.01
2022-10-11T00:04:06.822Z,91.01
2022-10-11T00:06:33.413Z,90.89
2022-10-11T00:08:59.928Z,91.58
2022-10-11T00:11:26.386Z,91.06
2022-10-11T00:13:52.852Z,91.55
2022-10-11T00:16:19.272Z,91.17
2022-10-11T00:18:45.922Z,90.87
2022-10-11T00:21:15.029Z,91.14
2022-10-11T00:23:42.599Z,90.78
2022-10-11T00:26:11.556Z,90.80
2022-10-11T00:28:39.139Z,91.02
2022-10-11T00:31:13.084Z,90.87
2022-10-11T00:33:39.752Z,90.69
2022-10-11T00:36:07.879Z,90.89
2022-10-11T00:38:34.683Z,90.76
2022-10-11T00:41:01.445Z,90.37
2022-10-11T00:43:30.027Z,90.47
2022-10-11T00:45:56.362Z,89.80
2022-10-11T00:48:44.566Z,90.38
2022-10-11T00:51:34.821Z,90.75
2022-10-11T00:54:02.708Z,90.87
2022-10-11T00:56:39.899Z,90.92
2022-10-11T00:59:16.293Z,90.89
2022-10-11T01:01:43.104Z,90.44
2022-10-11T01:04:09.836Z,90.99
2022-10-11T01:06:36.428Z,90.96
2022-10-11T01:09:04.285Z,90.73
2022-10-11T01:11:31.380Z,91.07
2022-10-11T01:14:06.879Z,91.43
2022-10-11T01:16:52.268Z,91.56
2022-10-11T01:19:30.514Z,91.03
2022-10-11T01:22:21.446Z,91.32
2022-10-11T01:25:15.884Z,91.08
2022-10-11T01:27:54.348Z,91.13
2022-10-11T01:30:25.316Z,91.46
2022-10-11T01:33:13.028Z,91.17
2022-10-11T01:35:57.794Z,91.70
2022-10-11T01:38:34.577Z,91.05
2022-10-11T01:41:33.748Z,91.62
2022-10-11T01:44:02.343Z,91.42
2022-10-11T01:46:29.446Z,91.40
2022-10-11T01:49:01.735Z,90.89
2022-10-11T01:51:33.023Z,91.21
2022-10-11T01:54:11.783Z,91.73
2022-10-11T01:56:57.160Z,91.51
2022-10-11T01:59:23.560Z,91.27
2022-10-11T02:02:02.042Z,91.29
2022-10-11T02:04:47.728Z,91.90
2022-10-11T02:07:28.464Z,91.38
2022-10-11T02:10:15.224Z,91.57
2022-10-11T02:12:55.135Z,91.63
2022-10-11T02:15:23.511Z,91.72
2022-10-11T02:17:56.146Z,91.48
2022-10-11T02:20:26.234Z,91.53
2022-10-11T02:22:59.737Z,91.71
2022-10-11T02:25:29.993Z,91.36
2022-10-11T02:27:59.963Z,91.10
2022-10-11T02:30:26.637Z,91.42
2022-10-11T02:32:56.099Z,91.91
2022-10-11T02:35:27.296Z,92.30
2022-10-11T02:38:01.703Z,91.63
2022-10-11T02:40:37.710Z,92.14
2022-10-11T02:43:17.843Z,91.80
2022-10-11T02:45:50.055Z,91.72
2022-10-11T02:48:16.991Z,92.23
2022-10-11T02:50:43.868Z,91.86
2022-10-11T02:53:10.393Z,92.18
2022-10-11T02:55:37.456Z,91.63
2022-10-11T02:58:03.939Z,92.37
2022-10-11T03:00:30.882Z,92.10
2022-10-11T03:02:57.500Z,92.29
2022-10-11T03:05:24.027Z,91.96
2022-10-11T03:07:50.540Z,92.04
2022-10-11T03:10:17.110Z,92.15
2022-10-11T03:12:43.577Z,92.19
2022-10-11T03:15:10.501Z,92.28
2022-10-11T03:17:37.560Z,92.19
2022-10-11T03:20:05.892Z,92.62
2022-10-11T03:22:32.604Z,91.94
2022-10-11T03:25:03.630Z,91.82
2022-10-11T03:27:31.436Z,92.33
2022-10-11T03:29:57.980Z,91.78
2022-10-11T03:32:24.684Z,91.84
2022-10-11T03:34:51.204Z,92.31
2022-10-11T03:37:18.295Z,92.06
2022-10-11T03:39:45.785Z,92.03
2022-10-11T03:42:12.885Z,92.25
2022-10-11T03:44:39.458Z,92.27
2022-10-11T03:47:06.142Z,91.93
2022-10-11T03:49:32.660Z,92.51
2022-10-11T03:51:59.306Z,91.84
2022-10-11T03:54:26.094Z,92.33
2022-10-11T03:56:52.918Z,92.17
2022-10-11T03:59:19.441Z,92.30
2022-10-11T04:01:45.884Z,91.93
2022-10-11T04:04:12.493Z,92.19
2022-10-11T04:06:39.064Z,92.62
2022-10-11T04:09:05.549Z,92.23
2022-10-11T04:11:32.767Z,92.34
2022-10-11T04:13:59.330Z,92.16
2022-10-11T04:16:25.960Z,92.27
2022-10-11T04:18:52.505Z,92.44
2022-10-11T04:21:18.952Z,92.16
2022-10-11T04:23:45.456Z,92.02
2022-10-11T04:26:11.946Z,92.65
2022-10-11T04:28:38.530Z,92.24
2022-10-11T04:31:06.627Z,92.14
2022-10-11T04:33:33.200Z,91.65
2022-10-11T04:35:59.811Z,91.93
2022-10-11T04:38:26.368Z,92.43
2022-10-11T04:40:52.946Z,91.80
2022-10-11T04:43:19.509Z,92.30
2022-10-11T04:45:46.154Z,92.07
2022-10-11T04:48:13.988Z,92.04
2022-10-11T04:50:40.533Z,92.14
2022-10-11T04:53:07.044Z,92.00
2022-10-11T04:55:33.533Z,92.38
2022-10-11T04:58:00.073Z,92.54
2022-10-11T05:00:27.432Z,92.68
2022-10-11T05:02:54.134Z,93.00
2022-10-11T05:05:20.772Z,93.21
2022-10-11T05:07:47.234Z,92.80
2022-10-11T05:10:13.821Z,92.54
2022-10-11T05:12:40.458Z,92.78
2022-10-11T05:15:07.788Z,93.27
2022-10-11T05:17:34.340Z,93.30
2022-10-11T05:20:00.952Z,93.47
2022-10-11T05:22:27.565Z,93.88
2022-10-11T05:24:54.045Z,93.57
2022-10-11T05:27:20.600Z,93.24
2022-10-11T05:29:47.075Z,93.57
2022-10-11T05:32:13.549Z,93.32
2022-10-11T05:34:40.011Z,93.18
2022-10-11T05:37:06.526Z,93.58
2022-10-11T05:39:32.982Z,93.32
2022-10-11T05:41:59.503Z,93.30
2022-10-11T05:44:26.069Z,93.95
2022-10-11T05:46:52.660Z,93.57
2022-10-11T05:49:19.115Z,93.45
2022-10-11T05:51:45.620Z,93.93
2022-10-11T05:54:12.046Z,94.09
2022-10-11T05:56:38.545Z,93.46
2022-10-11T05:59:06.317Z,94.38
2022-10-11T06:01:32.891Z,93.82
2022-10-11T06:03:59.445Z,93.98
2022-10-11T06:06:26.029Z,93.76
2022-10-11T06:08:52.491Z,94.10
2022-10-11T06:11:27.452Z,93.94
2022-10-11T06:13:54.981Z,93.96
2022-10-11T06:16:21.482Z,93.80
2022-10-11T06:18:47.991Z,93.72
2022-10-11T06:21:15.495Z,94.40
2022-10-11T06:23:41.956Z,94.21
2022-10-11T06:26:09.779Z,94.12
2022-10-11T06:28:37.189Z,93.64
2022-10-11T06:31:06.185Z,94.49
2022-10-11T06:33:33.791Z,94.19
2022-10-11T06:36:03.643Z,93.90
2022-10-11T06:38:30.509Z,94.27
2022-10-11T06:40:56.994Z,94.03
2022-10-11T06:43:23.786Z,93.78
2022-10-11T06:45:50.335Z,94.63
2022-10-11T06:48:16.840Z,93.93
2022-10-11T06:50:59.126Z,94.33
2022-10-11T06:53:27.158Z,94.38
2022-10-11T06:55:53.652Z,94.33
2022-10-11T06:58:20.075Z,94.19
2022-10-11T07:00:46.650Z,93.63
2022-10-11T07:03:13.189Z,94.19
2022-10-11T07:05:39.689Z,93.71
2022-10-11T07:08:06.188Z,93.96
2022-10-11T07:10:32.661Z,94.17
2022-10-11T07:12:59.135Z,94.45
2022-10-11T07:15:25.637Z,94.12
2022-10-11T07:17:52.140Z,94.45
2022-10-11T07:20:18.668Z,93.88
2022-10-11T07:22:45.129Z,94.33
2022-10-11T07:25:11.619Z,94.20
2022-10-11T07:27:38.097Z,94.38
2022-10-11T07:30:05.092Z,94.39
2022-10-11T07:32:31.527Z,93.81
2022-10-11T07:34:58.066Z,93.57
2022-10-11T07:37:24.498Z,94.01
2022-10-11T07:39:50.989Z,94.31
2022-10-11T07:42:17.500Z,94.33
2022-10-11T07:44:43.947Z,94.12
2022-10-11T07:47:11.417Z,94.53
2022-10-11T07:49:38.087Z,94.19
2022-10-11T07:52:04.865Z,94.21
2022-10-11T07:54:31.742Z,94.01
2022-10-11T07:56:58.330Z,94.03
2022-10-11T07:59:24.804Z,93.89
2022-10-11T08:01:51.315Z,94.25
2022-10-11T08:04:17.825Z,94.16
2022-10-11T08:06:44.309Z,93.52
2022-10-11T08:09:12.153Z,93.93
2022-10-11T08:11:39.475Z,93.82
2022-10-11T08:14:09.097Z,94.19
2022-10-11T08:16:36.529Z,93.63
2022-10-11T08:19:03.205Z,94.07
2022-10-11T08:21:30.107Z,94.00
2022-10-11T08:23:56.780Z,94.24
2022-10-11T08:26:23.593Z,94.59
2022-10-11T08:28:50.214Z,94.58
2022-10-11T08:31:16.906Z,94.52
2022-10-11T08:33:44.163Z,94.54
2022-10-11T08:36:11.541Z,94.39
2022-10-11T08:38:39.115Z,94.28
2022-10-11T08:41:29.284Z,94.10
2022-10-11T08:43:59.579Z,93.92
2022-10-11T08:46:30.950Z,93.88
2022-10-11T08:48:58.030Z,94.05
2022-10-11T08:51:35.602Z,93.27
2022-10-11T08:54:23.891Z,93.05
2022-10-11T08:56:51.046Z,92.33
2022-10-11T08:59:41.486Z,92.76
2022-10-11T09:02:55.626Z,93.25
2022-10-11T09:05:20.562Z,92.91
2022-10-11T09:08:08.340Z,91.72
2022-10-11T09:10:54.724Z,91.58
2022-10-11T09:13:34.708Z,91.62
2022-10-11T09:16:19.557Z,91.34
2022-10-11T09:18:55.644Z,91.75
2022-10-11T09:21:46.241Z,90.88
2022-10-11T09:24:21.985Z,90.52
2022-10-11T09:26:59.776Z,90.48
2022-10-11T09:29:45.055Z,90.19
2022-10-11T09:32:15.943Z,89.92
2022-10-11T09:34:43.417Z,89.31
2022-10-11T09:37:28.230Z,88.52
2022-10-11T09:40:12.274Z,88.14
2022-10-11T09:42:38.773Z,87.30
2022-10-11T09:45:18.637Z,85.49
2022-10-11T09:47:45.313Z,85.76
2022-10-11T09:50:19.748Z,84.79
2022-10-11T09:52:53.384Z,85.21
2022-10-11T09:56:02.014Z,84.25
2022-10-11T09:58:36.077Z,83.01
2022-10-11T10:01:11.625Z,82.15
2022-10-11T10:03:43.650Z,81.98
2022-10-11T10:06:16.071Z,81.00
2022-10-11T10:08:47.411Z,80.33
2022-10-11T10:11:14.761Z,78.66
2022-10-11T10:13:51.773Z,77.50
2022-10-11T10:16:29.027Z,77.29
2022-10-11T10:19:00.487Z,76.14
2022-10-11T10:21:34.005Z,77.37
2022-10-11T10:24:04.579Z,77.42
2022-10-11T10:26:32.747Z,76.44
2022-10-11T10:28:59.255Z,75.49
2022-10-11T10:31:49.540Z,75.37
2022-10-11T10:34:32.957Z,74.92
2022-10-11T10:37:08.251Z,74.12
2022-10-11T10:39:46.852Z,73.78
2022-10-11T10:42:16.466Z,72.99
2022-10-11T10:44:52.609Z,72.79
2022-10-11T10:47:24.787Z,72.94
2022-10-11T10:50:02.353Z,72.56
2022-10-11T10:52:56.679Z,72.49
2022-10-11T10:55:42.212Z,72.42
2022-10-11T10:58:56.541Z,72.61
2022-10-11T11:01:32.419Z,71.11
2022-10-11T11:04:04.815Z,70.33
2022-10-11T11:06:56.284Z,70.15
2022-10-11T11:09:28.695Z,69.63
2022-10-11T11:12:16.662Z,69.31
2022-10-11T11:14:57.994Z,68.64
2022-10-11T11:17:40.459Z,68.63
2022-10-11T11:20:43.718Z,67.64
2022-10-11T11:23:38.497Z,66.12
2022-10-11T11:26:32.476Z,67.14
2022-10-11T11:29:10.767Z,65.39
2022-10-11T11:31:47.317Z,63.81
2022-10-11T11:34:24.370Z,65.39
2022-10-11T11:37:01.708Z,64.86
2022-10-11T11:39:34.047Z,65.02
2022-10-11T11:42:12.302Z,65.74
2022-10-11T11:44:44.816Z,66.73
2022-10-11T11:47:19.003Z,67.15
2022-10-11T11:49:48.142Z,68.28
2022-10-11T11:52:30.393Z,68.46
2022-10-11T11:55:23.331Z,68.14
2022-10-11T11:58:07.301Z,68.31
2022-10-11T12:00:46.624Z,68.14
2022-10-11T12:03:20.792Z,66.51
2022-10-11T12:06:12.179Z,67.84
2022-10-11T12:08:40.998Z,67.42
2022-10-11T12:11:20.822Z,68.11
2022-10-11T12:13:50.830Z,66.69
2022-10-11T12:16:17.898Z,66.79
2022-10-11T12:18:50.552Z,66.93
2022-10-11T12:21:22.920Z,66.73
2022-10-11T12:23:53.602Z,64.75
2022-10-11T12:26:29.216Z,66.47
2022-10-11T12:29:01.661Z,65.02
2022-10-11T12:31:32.711Z,63.73
2022-10-11T12:34:02.180Z,63.32
2022-10-11T12:36:31.409Z,61.81
2022-10-11T12:39:19.796Z,63.47
2022-10-11T12:41:49.200Z,62.69
2022-10-11T12:44:18.701Z,61.69
2022-10-11T12:46:51.477Z,59.16
2022-10-11T12:49:43.932Z,62.50
2022-10-11T12:52:16.350Z,61.05
2022-10-11T12:54:54.885Z,58.32
2022-10-11T12:57:33.427Z,59.96
2022-10-11T13:00:50.595Z,59.62
2022-10-11T13:03:46.595Z,58.73
2022-10-11T13:06:20.116Z,57.75
2022-10-11T13:08:57.428Z,58.53
2022-10-11T13:11:29.737Z,61.38
2022-10-11T13:14:00.009Z,62.05
2022-10-11T13:16:42.120Z,58.56
2022-10-11T13:19:13.485Z,56.97
2022-10-11T13:21:40.121Z,57.07
2022-10-11T13:24:17.547Z,55.99
2022-10-11T13:26:46.588Z,57.40
2022-10-11T13:29:26.287Z,55.74
2022-10-11T13:31:52.923Z,56.70
2022-10-11T13:34:23.192Z,57.10
2022-10-11T13:36:56.145Z,58.65
2022-10-11T13:39:31.284Z,59.27
2022-10-11T13:41:59.648Z,59.03
2022-10-11T13:44:26.374Z,60.61
2022-10-11T13:46:54.127Z,60.30
2022-10-11T13:49:29.225Z,62.08
2022-10-11T13:52:01.108Z,60.87
2022-10-11T13:55:04.761Z,62.68
2022-10-11T13:57:42.477Z,63.85
2022-10-11T14:00:15.686Z,63.04
2022-10-11T14:03:00.817Z,64.16
2022-10-11T14:05:32.153Z,64.63
2022-10-11T14:08:01.879Z,63.84
2022-10-11T14:10:28.810Z,64.90
2022-10-11T14:13:06.643Z,65.70
2022-10-11T14:15:38.043Z,66.41
2022-10-11T14:18:42.312Z,65.44
2022-10-11T14:21:45.843Z,64.85
2022-10-11T14:24:13.178Z,65.44
2022-10-11T14:26:42.660Z,66.65
2022-10-11T14:29:25.225Z,67.21
2022-10-11T14:31:55.973Z,64.48
2022-10-11T14:34:24.263Z,61.61
2022-10-11T14:36:50.900Z,58.87
2022-10-11T14:39:19.908Z,61.48
2022-10-11T14:41:46.562Z,59.83
2022-10-11T14:44:14.178Z,59.95
2022-10-11T14:46:41.348Z,60.15
2022-10-11T14:49:23.113Z,59.30
2022-10-11T14:51:50.375Z,57.14
2022-10-11T14:54:19.097Z,57.62
2022-10-11T14:56:46.464Z,56.58
2022-10-11T14:59:15.671Z,57.43
2022-10-11T15:01:43.000Z,57.23
2022-10-11T15:04:09.584Z,57.14
2022-10-11T15:06:39.684Z,56.37
2022-10-11T15:09:07.510Z,57.43
2022-10-11T15:11:35.117Z,57.79
2022-10-11T15:14:01.634Z,56.66
2022-10-11T15:16:28.146Z,57.21
2022-10-11T15:18:54.581Z,56.97
2022-10-11T15:21:23.445Z,57.06
2022-10-11T15:23:51.086Z,58.27
2022-10-11T15:26:35.743Z,57.91
2022-10-11T15:29:02.682Z,57.18
2022-10-11T15:31:29.242Z,56.91
2022-10-11T15:33:59.457Z,56.68
2022-10-11T15:36:26.205Z,58.16
2022-10-11T15:38:52.689Z,58.89
2022-10-11T15:41:20.081Z,58.92
2022-10-11T15:43:48.502Z,60.05
2022-10-11T15:46:19.596Z,60.30
2022-10-11T15:48:47.185Z,60.11
2022-10-11T15:51:14.017Z,59.01
2022-10-11T15:53:40.745Z,60.96
2022-10-11T15:56:11.951Z,60.61
2022-10-11T15:58:40.823Z,59.74
2022-10-11T16:01:18.836Z,59.99
2022-10-11T16:03:47.325Z,59.70
2022-10-11T16:06:14.222Z,59.93
2022-10-11T16:08:40.983Z,60.42
2022-10-11T16:11:08.880Z,60.87
2022-10-11T16:13:36.623Z,61.77
2022-10-11T16:16:05.562Z,61.86
2022-10-11T16:18:35.588Z,62.22
2022-10-11T16:21:06.441Z,62.55
2022-10-11T16:23:33.144Z,63.97
2022-10-11T16:26:02.050Z,64.58
2022-10-11T16:28:29.186Z,65.73
2022-10-11T16:30:55.927Z,67.32
2022-10-11T16:33:22.697Z,67.74
2022-10-11T16:35:49.236Z,67.83
2022-10-11T16:38:15.849Z,67.82
2022-10-11T16:40:43.043Z,67.54
2022-10-11T16:43:10.409Z,68.87
2022-10-11T16:45:37.141Z,68.75
2022-10-11T16:48:04.261Z,69.46
2022-10-11T16:50:33.311Z,69.88
2022-10-11T16:53:02.039Z,70.37
2022-10-11T16:55:28.541Z,70.83
2022-10-11T16:57:55.073Z,71.23
2022-10-11T17:00:21.751Z,71.79
2022-10-11T17:02:48.373Z,72.45
2022-10-11T17:05:14.959Z,72.45
2022-10-11T17:07:41.465Z,72.74
2022-10-11T17:10:08.528Z,73.12
2022-10-11T17:12:37.202Z,73.29
2022-10-11T17:15:05.039Z,73.95
2022-10-11T17:17:31.558Z,74.09
2022-10-11T17:19:58.161Z,74.10
2022-10-11T17:22:24.779Z,74.49
2022-10-11T17:24:51.291Z,74.80
2022-10-11T17:27:17.721Z,75.35
2022-10-11T17:29:44.199Z,75.22
2022-10-11T17:32:10.782Z,75.33
2022-10-11T17:34:37.199Z,75.48
2022-10-11T17:37:03.773Z,75.57
2022-10-11T17:39:30.819Z,76.47
2022-10-11T17:41:57.305Z,76.96
2022-10-11T17:44:23.881Z,77.24
2022-10-11T17:46:50.488Z,77.58
2022-10-11T17:49:17.044Z,77.65
2022-10-11T17:51:43.739Z,77.65
2022-10-11T17:54:13.319Z,77.96
2022-10-11T17:56:43.050Z,78.11
2022-10-11T17:59:15.914Z,78.22
2022-10-11T18:01:42.474Z,78.25
2022-10-11T18:04:16.335Z,78.43
2022-10-11T18:06:45.075Z,78.24
2022-10-11T18:09:13.068Z,78.80
2022-10-11T18:11:39.674Z,78.47
2022-10-11T18:14:06.176Z,78.75
2022-10-11T18:16:33.300Z,79.38
2022-10-11T18:19:02.791Z,79.50
2022-10-11T18:21:34.716Z,79.73
2022-10-11T18:24:03.520Z,79.71
2022-10-11T18:26:30.910Z,80.00
2022-10-11T18:28:58.628Z,80.11
2022-10-11T18:31:27.933Z,80.49
2022-10-11T18:33:55.151Z,80.63
2022-10-11T18:36:24.688Z,80.99
2022-10-11T18:39:00.983Z,81.11
2022-10-11T18:41:31.673Z,81.66
2022-10-11T18:44:00.905Z,81.54
2022-10-11T18:46:28.160Z,81.56
2022-10-11T18:48:56.317Z,81.71
2022-10-11T18:51:31.628Z,81.74
2022-10-11T18:54:01.021Z,81.70
2022-10-11T18:56:29.658Z,81.87
2022-10-11T18:58:57.638Z,82.14
2022-10-11T19:01:38.008Z,81.74
2022-10-11T19:04:06.220Z,81.89
2022-10-11T19:06:41.192Z,81.77
2022-10-11T19:09:11.788Z,82.17
2022-10-11T19:11:39.129Z,82.21
2022-10-11T19:14:12.257Z,82.31
2022-10-11T19:16:41.325Z,82.16
2022-10-11T19:19:09.525Z,81.74
2022-10-11T19:21:36.017Z,82.49
2022-10-11T19:24:03.552Z,82.34
2022-10-11T19:26:33.735Z,82.52
2022-10-11T19:29:05.220Z,82.38
2022-10-11T19:31:33.079Z,82.39
2022-10-11T19:33:59.906Z,82.65
2022-10-11T19:36:27.499Z,82.43
2022-10-11T19:38:58.090Z,82.97
2022-10-11T19:41:26.265Z,82.82
2022-10-11T19:43:54.041Z,83.27
2022-10-11T19:49:09.158Z,83.51
2022-10-11T19:51:37.337Z,83.74
2022-10-11T19:54:07.003Z,83.42
2022-10-11T19:56:34.435Z,83.54
2022-10-11T19:59:01.493Z,83.98
2022-10-11T20:01:30.943Z,83.76
2022-10-11T20:04:05.969Z,83.54
2022-10-11T20:06:38.044Z,83.53
2022-10-11T20:09:28.082Z,83.83
2022-10-11T20:11:52.283Z,83.92
2022-10-11T20:14:18.972Z,83.48
2022-10-11T20:16:45.422Z,83.26
2022-10-11T20:19:11.913Z,83.30
2022-10-11T20:21:38.613Z,83.71
2022-10-11T20:24:06.862Z,83.65
2022-10-11T20:26:34.336Z,83.53
2022-10-11T20:29:00.879Z,83.72
2022-10-11T20:31:32.890Z,83.91
2022-10-11T20:34:02.348Z,84.04
2022-10-11T20:36:30.326Z,83.95
2022-10-11T20:38:58.246Z,83.86
2022-10-11T20:41:31.641Z,83.85
2022-10-11T20:43:59.768Z,83.79
2022-10-11T20:46:32.297Z,83.89
2022-10-11T20:49:02.230Z,83.89
2022-10-11T20:51:34.284Z,84.04
2022-10-11T20:54:02.169Z,83.81
2022-10-11T20:56:29.793Z,83.97
2022-10-11T20:58:58.262Z,84.06
2022-10-11T21:01:28.727Z,84.00
2022-10-11T21:03:58.576Z,84.04
2022-10-11T21:06:25.740Z,84.33
2022-10-11T21:08:55.209Z,84.22
2022-10-11T21:11:21.824Z,84.38
2022-10-11T21:13:48.339Z,84.83
2022-10-11T21:16:16.347Z,84.77
2022-10-11T21:18:42.855Z,84.67
2022-10-11T21:21:13.939Z,84.58
2022-10-11T21:23:41.245Z,84.63
2022-10-11T21:26:13.296Z,84.77
2022-10-11T21:28:40.692Z,84.96
2022-10-11T21:31:09.632Z,85.06
2022-10-11T21:33:36.949Z,84.92
2022-10-11T21:36:08.201Z,84.78
2022-10-11T21:38:34.964Z,85.07
2022-10-11T21:41:11.447Z,85.20
2022-10-11T21:43:38.454Z,84.99
2022-10-11T21:46:41.613Z,85.29
2022-10-11T21:49:12.522Z,85.26
2022-10-11T21:51:39.826Z,85.52
2022-10-11T21:54:06.367Z,85.24
2022-10-11T21:56:32.880Z,85.86
2022-10-11T21:58:59.403Z,86.09
2022-10-11T22:01:26.018Z,86.25
2022-10-11T22:03:53.879Z,86.51
2022-10-11T22:06:21.431Z,86.51
2022-10-11T22:08:49.983Z,86.70
2022-10-11T22:11:16.672Z,86.67
2022-10-11T22:13:45.026Z,86.72
2022-10-11T22:16:13.257Z,87.18
2022-10-11T22:18:41.355Z,87.24
2022-10-11T22:21:17.657Z,87.43
2022-10-11T22:23:47.024Z,87.59
2022-10-11T22:26:16.342Z,87.68
2022-10-11T22:28:43.174Z,87.74
2022-10-11T22:31:10.237Z,87.78
2022-10-11T22:33:37.043Z,87.78
2022-10-11T22:36:08.791Z,88.06
2022-10-11T22:38:37.164Z,88.20
2022-10-11T22:41:03.724Z,88.19
2022-10-11T22:43:30.161Z,88.17
2022-10-11T22:45:56.632Z,87.99
2022-10-11T22:48:23.232Z,88.04
2022-10-11T22:50:49.907Z,87.70
2022-10-11T22:53:16.396Z,88.06
2022-10-11T22:55:43.036Z,88.14
2022-10-11T22:58:09.799Z,88.07
2022-10-11T23:00:36.445Z,88.42
2022-10-11T23:03:02.968Z,88.15
2022-10-11T23:05:29.478Z,88.42
2022-10-11T23:07:56.049Z,88.73
2022-10-11T23:10:22.607Z,88.83
2022-10-11T23:12:49.064Z,88.91
2022-10-11T23:15:15.599Z,89.03
2022-10-11T23:17:42.434Z,89.10
2022-10-11T23:20:09.587Z,89.03
2022-10-11T23:22:36.075Z,89.03
2022-10-11T23:25:02.715Z,89.28
2022-10-11T23:27:30.095Z,89.07
2022-10-11T23:29:56.687Z,89.10
2022-10-11T23:32:23.889Z,89.43
2022-10-11T23:34:51.486Z,89.73
2022-10-11T23:37:17.995Z,89.89
2022-10-11T23:39:44.445Z,89.84
2022-10-11T23:42:11.251Z,89.76
2022-10-11T23:44:37.707Z,89.96
2022-10-11T23:47:04.168Z,89.80
2022-10-11T23:49:30.732Z,89.49
2022-10-11T23:51:57.312Z,89.23
2022-10-11T23:54:23.777Z,89.06
2022-10-11T23:56:50.244Z,89.34
2022-10-11T23:59:16.792Z,89.22
